Time;durP1;ratioP1;P1;durP2;ratioP2;P2;SDS_P1;SDS_P2;PMS_P1;PMS_P2;Temp;Humidity;BMP_temperature;BMP_pressure;BME280_temperature;BME280_humidity;BME280_pressure;Samples;Min_cycle;Max_cycle;Signal;HPM_P1;HPM_P2
2023/01/28 00:00:39;;;;;;;0.50;0.50;;;;;;;;;;4615902;27;20027;-60
2023/01/28 00:02:50;;;;;;;0.63;0.57;;;;;;;;;;4616707;27;20036;-60
2023/01/28 00:05:00;;;;;;;0.50;0.50;;;;;;;;;;4615213;27;20402;-61
2023/01/28 00:07:11;;;;;;;0.50;0.50;;;;;;;;;;4615725;27;20815;-60
2023/01/28 00:09:21;;;;;;;0.55;0.55;;;;;;;;;;4613739;27;20046;-61
2023/01/28 00:11:32;;;;;;;0.60;0.50;;;;;;;;;;4613444;27;20019;-60
2023/01/28 00:13:43;;;;;;;0.70;0.70;;;;;;;;;;4602671;27;20122;-60
2023/01/28 00:15:57;;;;;;;0.60;0.60;;;;;;;;;;4616759;27;20023;-60
2023/01/28 00:18:08;;;;;;;0.50;0.50;;;;;;;;;;4613546;27;20081;-60
2023/01/28 00:20:18;;;;;;;0.60;0.60;;;;;;;;;;4613867;27;20042;-60
2023/01/28 00:22:28;;;;;;;0.50;0.45;;;;;;;;;;4614998;27;20134;-60
2023/01/28 00:24:39;;;;;;;0.52;0.52;;;;;;;;;;4614306;27;20027;-60
2023/01/28 00:26:49;;;;;;;0.50;0.50;;;;;;;;;;4616345;27;20030;-60
2023/01/28 00:28:59;;;;;;;0.82;0.50;;;;;;;;;;4617164;27;20120;-60
2023/01/28 00:31:13;;;;;;;0.60;0.60;;;;;;;;;;4615413;27;20039;-60
2023/01/28 00:33:23;;;;;;;0.60;0.60;;;;;;;;;;4614708;27;20079;-60
2023/01/28 00:35:33;;;;;;;0.50;0.50;;;;;;;;;;4614760;27;20430;-61
2023/01/28 00:37:47;;;;;;;0.93;0.63;;;;;;;;;;4602352;27;20633;-60
2023/01/28 00:39:57;;;;;;;0.65;0.65;;;;;;;;;;4615582;27;20733;-59
2023/01/28 00:42:08;;;;;;;0.63;0.60;;;;;;;;;;4615554;27;20143;-60
2023/01/28 00:44:18;;;;;;;0.50;0.50;;;;;;;;;;4615963;27;20103;-61
2023/01/28 00:46:29;;;;;;;0.50;0.50;;;;;;;;;;4614594;27;20027;-60
2023/01/28 00:48:40;;;;;;;0.65;0.60;;;;;;;;;;4614608;27;20043;-60
2023/01/28 00:50:50;;;;;;;0.70;0.55;;;;;;;;;;4616813;27;20732;-60
2023/01/28 00:53:01;;;;;;;0.52;0.52;;;;;;;;;;4617548;27;20560;-60
2023/01/28 00:55:12;;;;;;;0.68;0.68;;;;;;;;;;4615751;27;20556;-58
2023/01/28 00:57:22;;;;;;;0.50;0.50;;;;;;;;;;4615103;27;20035;-60
2023/01/28 00:59:32;;;;;;;0.50;0.50;;;;;;;;;;4615076;27;20328;-60
2023/01/28 01:01:43;;;;;;;0.57;0.57;;;;;;;;;;4614818;27;20039;-60
2023/01/28 01:04:01;;;;;;;0.50;0.50;;;;;;;;;;4630265;27;20534;-60
2023/01/28 01:06:14;;;;;;;0.60;0.60;;;;;;;;;;4614713;27;20043;-59
2023/01/28 01:08:33;;;;;;;0.57;0.57;;;;;;;;;;4614694;27;20027;-60
2023/01/28 01:10:44;;;;;;;0.73;0.60;;;;;;;;;;4615652;27;20045;-60
2023/01/28 01:12:58;;;;;;;0.68;0.68;;;;;;;;;;4615938;27;20055;-60
2023/01/28 01:15:09;;;;;;;0.60;0.60;;;;;;;;;;4615661;27;20578;-60
2023/01/28 01:17:20;;;;;;;0.93;0.70;;;;;;;;;;4614552;27;20047;-60
2023/01/28 01:19:31;;;;;;;0.60;0.60;;;;;;;;;;4614141;27;20035;-60
2023/01/28 01:21:41;;;;;;;0.52;0.52;;;;;;;;;;4614334;27;20035;-60
2023/01/28 01:23:52;;;;;;;0.52;0.50;;;;;;;;;;4613463;27;20065;-61
2023/01/28 01:26:03;;;;;;;0.63;0.60;;;;;;;;;;4618479;27;20503;-59
2023/01/28 01:28:14;;;;;;;0.60;0.60;;;;;;;;;;4614983;27;20594;-60
2023/01/28 01:30:24;;;;;;;0.60;0.60;;;;;;;;;;4614677;27;20050;-60
2023/01/28 01:32:35;;;;;;;0.60;0.60;;;;;;;;;;4615076;27;20064;-60
2023/01/28 01:34:46;;;;;;;0.73;0.70;;;;;;;;;;4613695;27;20042;-60
2023/01/28 01:36:56;;;;;;;0.60;0.60;;;;;;;;;;4612951;27;20051;-59
2023/01/28 01:39:06;;;;;;;0.80;0.60;;;;;;;;;;4613925;27;20023;-59
2023/01/28 01:41:27;;;;;;;0.50;0.50;;;;;;;;;;4611631;27;20502;-60
2023/01/28 01:43:55;;;;;;;0.70;0.70;;;;;;;;;;4614663;27;20137;-60
2023/01/28 01:46:05;;;;;;;;;;;;;;;;;;4597985;27;20028;-60
2023/01/28 01:48:26;;;;;;;0.60;0.60;;;;;;;;;;4630352;27;19919;-60
2023/01/28 01:50:44;;;;;;;0.50;0.50;;;;;;;;;;4613624;27;20257;-60
2023/01/28 01:52:56;;;;;;;0.63;0.63;;;;;;;;;;4615091;27;20042;-60
2023/01/28 01:55:10;;;;;;;0.50;0.50;;;;;;;;;;4615427;27;20832;-60
2023/01/28 01:57:23;;;;;;;0.57;0.57;;;;;;;;;;4613666;27;20127;-60
2023/01/28 01:59:34;;;;;;;0.85;0.70;;;;;;;;;;4600712;27;20035;-60
2023/01/28 02:01:45;;;;;;;0.60;0.60;;;;;;;;;;4610696;27;20093;-59
2023/01/28 02:03:58;;;;;;;0.63;0.63;;;;;;;;;;4612666;27;20125;-60
2023/01/28 02:06:08;;;;;;;0.68;0.68;;;;;;;;;;4614597;27;20049;-59
2023/01/28 02:08:21;;;;;;;0.95;0.63;;;;;;;;;;4613761;27;20042;-60
2023/01/28 02:10:32;;;;;;;0.50;0.50;;;;;;;;;;4628954;27;20323;-60
2023/01/28 02:12:43;;;;;;;0.75;0.70;;;;;;;;;;4600125;27;20024;-61
2023/01/28 02:14:56;;;;;;;0.85;0.75;;;;;;;;;;4615317;27;20038;-60
2023/01/28 02:17:06;;;;;;;0.68;0.65;;;;;;;;;;4614251;27;20619;-61
2023/01/28 02:19:18;;;;;;;0.60;0.60;;;;;;;;;;4613356;27;20065;-60
2023/01/28 02:21:35;;;;;;;0.60;0.60;;;;;;;;;;4611986;27;20042;-60
2023/01/28 02:24:04;;;;;;;0.60;0.60;;;;;;;;;;4600932;27;20033;-59
2023/01/28 02:26:23;;;;;;;0.70;0.70;;;;;;;;;;4612838;27;20035;-59
2023/01/28 02:28:53;;;;;;;0.70;0.70;;;;;;;;;;4614584;27;20041;-60
2023/01/28 02:31:14;;;;;;;0.70;0.70;;;;;;;;;;4615940;27;20035;-60
2023/01/28 02:33:28;;;;;;;0.75;0.75;;;;;;;;;;4612562;27;20035;-59
2023/01/28 02:35:47;;;;;;;0.60;0.60;;;;;;;;;;4613053;27;20106;-60
2023/01/28 02:38:02;;;;;;;0.70;0.70;;;;;;;;;;4618592;27;20078;-61
2023/01/28 02:40:19;;;;;;;0.73;0.70;;;;;;;;;;4614854;27;20035;-59
2023/01/28 02:42:31;;;;;;;0.70;0.70;;;;;;;;;;4612543;27;20509;-60
2023/01/28 02:44:41;;;;;;;0.65;0.65;;;;;;;;;;4599793;27;20138;-62
2023/01/28 02:49:25;;;;;;;0.70;0.70;;;;;;;;;;4612861;27;20039;-60
2023/01/28 02:51:35;;;;;;;0.70;0.70;;;;;;;;;;4600738;27;20035;-60
2023/01/28 02:53:50;;;;;;;0.75;0.70;;;;;;;;;;4611922;27;20035;-60
2023/01/28 02:56:20;;;;;;;0.60;0.60;;;;;;;;;;4595830;27;20044;-59
2023/01/28 02:58:39;;;;;;;0.65;0.65;;;;;;;;;;4600193;27;20282;-60
2023/01/28 03:00:53;;;;;;;1.48;0.70;;;;;;;;;;4614145;27;20039;-59
2023/01/28 03:03:13;;;;;;;0.60;0.60;;;;;;;;;;4610634;27;21018;-61
2023/01/28 03:05:28;;;;;;;0.70;0.70;;;;;;;;;;4614410;27;20023;-60
2023/01/28 03:07:39;;;;;;;0.60;0.60;;;;;;;;;;4612879;27;20768;-60
2023/01/28 03:09:51;;;;;;;0.60;0.60;;;;;;;;;;4600164;27;20159;-60
2023/01/28 03:37:22;;;;;;;0.50;0.50;;;;;;;;;;4611276;27;20054;-60
2023/01/28 03:39:43;;;;;;;0.63;0.63;;;;;;;;;;4612434;27;20057;-60
2023/01/28 03:41:55;;;;;;;0.75;0.70;;;;;;;;;;4611818;27;21127;-59
2023/01/28 03:46:36;;;;;;;0.70;0.70;;;;;;;;;;4611977;27;20107;-59
2023/01/28 03:48:47;;;;;;;0.60;0.60;;;;;;;;;;4611336;27;20168;-59
2023/01/28 03:51:01;;;;;;;0.68;0.68;;;;;;;;;;4599435;27;20123;-59
2023/01/28 03:53:14;;;;;;;0.63;0.63;;;;;;;;;;4592433;27;20138;-59
2023/01/28 03:55:33;;;;;;;0.60;0.60;;;;;;;;;;4608700;27;20031;-59
2023/01/28 03:57:43;;;;;;;0.70;0.70;;;;;;;;;;4613997;27;20031;-59
2023/01/28 03:59:55;;;;;;;0.70;0.70;;;;;;;;;;4599575;27;20042;-60
2023/01/28 04:02:06;;;;;;;0.82;0.63;;;;;;;;;;4595033;27;20031;-60
2023/01/28 04:04:23;;;;;;;0.50;0.50;;;;;;;;;;4613402;27;20078;-60
2023/01/28 04:06:35;;;;;;;0.60;0.60;;;;;;;;;;4610561;27;20147;-60
2023/01/28 04:09:04;;;;;;;0.50;0.50;;;;;;;;;;4614754;27;20680;-60
2023/01/28 04:11:14;;;;;;;0.52;0.52;;;;;;;;;;4613729;27;20066;-60
2023/01/28 04:13:26;;;;;;;0.60;0.60;;;;;;;;;;4599274;27;20039;-60
2023/01/28 04:15:36;;;;;;;0.50;0.50;;;;;;;;;;4612222;27;20103;-59
2023/01/28 04:17:47;;;;;;;0.68;0.65;;;;;;;;;;4610547;27;20498;-60
2023/01/28 04:20:04;;;;;;;0.60;0.60;;;;;;;;;;4612353;27;20032;-60
2023/01/28 04:22:14;;;;;;;0.70;0.70;;;;;;;;;;4598892;27;20035;-60
2023/01/28 04:24:26;;;;;;;0.70;0.70;;;;;;;;;;4594270;27;20046;-60
2023/01/28 04:26:37;;;;;;;0.85;0.60;;;;;;;;;;4615794;27;20797;-60
2023/01/28 04:28:48;;;;;;;0.52;0.50;;;;;;;;;;4611332;27;20122;-60
2023/01/28 04:31:00;;;;;;;0.82;0.60;;;;;;;;;;4611741;27;20134;-60
2023/01/28 04:33:39;;;;;;;0.70;0.70;;;;;;;;;;4554379;27;20599;-59
2023/01/28 04:36:22;;;;;;;0.52;0.52;;;;;;;;;;4565848;27;20592;-59
2023/01/28 04:38:47;;;;;;;0.60;0.60;;;;;;;;;;4611451;27;20062;-60
2023/01/28 04:41:12;;;;;;;0.60;0.60;;;;;;;;;;4609750;27;20050;-60
2023/01/28 04:43:23;;;;;;;0.60;0.60;;;;;;;;;;4598490;27;20752;-60
2023/01/28 04:45:35;;;;;;;0.50;0.50;;;;;;;;;;4614044;27;20042;-58
2023/01/28 04:48:04;;;;;;;0.85;0.60;;;;;;;;;;4614743;27;20097;-59
2023/01/28 04:50:34;;;;;;;0.60;0.60;;;;;;;;;;4616257;27;21175;-60
2023/01/28 04:53:12;;;;;;;0.60;0.60;;;;;;;;;;4615687;27;20089;-59
2023/01/28 04:55:33;;;;;;;0.60;0.60;;;;;;;;;;4613826;27;20043;-59
2023/01/28 04:57:45;;;;;;;0.70;0.70;;;;;;;;;;4614540;27;20043;-60
2023/01/28 04:59:55;;;;;;;0.60;0.60;;;;;;;;;;4614815;27;20057;-61
2023/01/28 05:02:06;;;;;;;0.55;0.55;;;;;;;;;;4613319;27;20589;-60
2023/01/28 05:04:16;;;;;;;0.90;0.80;;;;;;;;;;4613064;27;20035;-60
2023/01/28 05:06:27;;;;;;;0.52;0.52;;;;;;;;;;4612722;27;20104;-59
2023/01/28 05:08:40;;;;;;;0.60;0.60;;;;;;;;;;4602127;27;21293;-59
2023/01/28 05:10:50;;;;;;;0.60;0.60;;;;;;;;;;4613571;27;20035;-60
2023/01/28 05:13:00;;;;;;;0.65;0.65;;;;;;;;;;4613066;27;20851;-60
2023/01/28 05:15:11;;;;;;;0.60;0.60;;;;;;;;;;4613341;27;20122;-59
2023/01/28 05:17:21;;;;;;;0.63;0.63;;;;;;;;;;4602175;27;20035;-59
2023/01/28 05:19:32;;;;;;;0.80;0.60;;;;;;;;;;4613880;27;20114;-59
2023/01/28 05:21:43;;;;;;;0.60;0.60;;;;;;;;;;4614637;27;20086;-60
2023/01/28 05:24:10;;;;;;;0.50;0.50;;;;;;;;;;4613623;27;20601;-60
2023/01/28 05:26:21;;;;;;;0.60;0.60;;;;;;;;;;4619796;27;20133;-59
2023/01/28 05:28:32;;;;;;;0.63;0.63;;;;;;;;;;4614776;27;20122;-60
2023/01/28 05:30:42;;;;;;;0.68;0.68;;;;;;;;;;4600944;27;20047;-60
2023/01/28 05:32:56;;;;;;;0.60;0.60;;;;;;;;;;4613295;27;20169;-60
2023/01/28 05:35:06;;;;;;;0.60;0.60;;;;;;;;;;4602226;27;20777;-59
2023/01/28 05:37:17;;;;;;;0.73;0.60;;;;;;;;;;4613495;27;20095;-59
2023/01/28 05:39:29;;;;;;;0.90;0.70;;;;;;;;;;4613505;27;20201;-59
2023/01/28 05:41:39;;;;;;;0.60;0.60;;;;;;;;;;4613573;27;20573;-59
2023/01/28 05:43:49;;;;;;;0.70;0.70;;;;;;;;;;4614039;27;20580;-59
2023/01/28 05:46:18;;;;;;;0.68;0.68;;;;;;;;;;4615658;27;20594;-59
2023/01/28 05:48:44;;;;;;;0.80;0.80;;;;;;;;;;4611331;27;20943;-59
2023/01/28 05:51:15;;;;;;;0.60;0.60;;;;;;;;;;4615191;27;20130;-59
2023/01/28 05:53:29;;;;;;;0.60;0.60;;;;;;;;;;4614260;27;20031;-59
2023/01/28 05:55:39;;;;;;;0.70;0.70;;;;;;;;;;4602013;27;20546;-59
2023/01/28 05:57:49;;;;;;;0.70;0.70;;;;;;;;;;4613618;27;20057;-59
2023/01/28 06:00:04;;;;;;;0.90;0.80;;;;;;;;;;4613381;27;20019;-58
2023/01/28 06:02:24;;;;;;;0.70;0.70;;;;;;;;;;4611827;27;20585;-59
2023/01/28 06:04:38;;;;;;;0.60;0.60;;;;;;;;;;4630061;27;20038;-59
2023/01/28 06:06:49;;;;;;;0.80;0.80;;;;;;;;;;4614440;27;20035;-59
2023/01/28 06:08:59;;;;;;;0.75;0.75;;;;;;;;;;4614095;27;20031;-59
2023/01/28 06:11:13;;;;;;;0.70;0.70;;;;;;;;;;4613956;27;20132;-59
2023/01/28 06:13:23;;;;;;;0.70;0.70;;;;;;;;;;4610269;27;20552;-58
2023/01/28 06:15:53;;;;;;;0.93;0.80;;;;;;;;;;4614951;27;20047;-59
2023/01/28 06:18:08;;;;;;;0.68;0.68;;;;;;;;;;4611970;27;20051;-59
2023/01/28 06:20:19;;;;;;;0.95;0.85;;;;;;;;;;4613782;27;20031;-59
2023/01/28 06:22:31;;;;;;;0.70;0.70;;;;;;;;;;4612815;27;20154;-59
2023/01/28 06:24:42;;;;;;;0.70;0.70;;;;;;;;;;4611742;27;20039;-59
2023/01/28 06:26:52;;;;;;;0.80;0.80;;;;;;;;;;4615919;27;20804;-59
2023/01/28 06:29:02;;;;;;;0.75;0.75;;;;;;;;;;4600466;27;20039;-59
2023/01/28 06:31:13;;;;;;;0.73;0.73;;;;;;;;;;4614295;27;20034;-59
2023/01/28 06:33:23;;;;;;;0.90;0.90;;;;;;;;;;4614477;27;20080;-59
2023/01/28 06:35:34;;;;;;;0.93;0.82;;;;;;;;;;4612703;27;20039;-59
2023/01/28 06:37:45;;;;;;;0.75;0.70;;;;;;;;;;4614655;27;20043;-59
2023/01/28 06:39:55;;;;;;;0.75;0.70;;;;;;;;;;4615358;27;20035;-59
2023/01/28 06:42:05;;;;;;;0.70;0.70;;;;;;;;;;4610887;27;20096;-60
2023/01/28 06:44:16;;;;;;;0.80;0.80;;;;;;;;;;4613079;27;20570;-60
2023/01/28 06:46:26;;;;;;;0.70;0.70;;;;;;;;;;4613905;27;20448;-59
2023/01/28 06:48:37;;;;;;;0.80;0.80;;;;;;;;;;4613932;27;20088;-60
2023/01/28 06:50:47;;;;;;;0.70;0.70;;;;;;;;;;4614930;27;20538;-59
2023/01/28 06:52:57;;;;;;;0.77;0.77;;;;;;;;;;4612767;27;20035;-59
2023/01/28 06:55:08;;;;;;;0.90;0.80;;;;;;;;;;4614851;27;20327;-59
2023/01/28 06:57:18;;;;;;;0.93;0.80;;;;;;;;;;4613250;27;20042;-59
2023/01/28 06:59:28;;;;;;;0.93;0.70;;;;;;;;;;4614568;27;20492;-60
2023/01/28 07:01:39;;;;;;;0.70;0.70;;;;;;;;;;4611534;27;20544;-61
2023/01/28 07:03:49;;;;;;;0.60;0.60;;;;;;;;;;4614495;27;20095;-63
2023/01/28 07:05:59;;;;;;;1.08;0.70;;;;;;;;;;4614363;27;20548;-60
2023/01/28 07:08:10;;;;;;;0.70;0.68;;;;;;;;;;4613599;27;20030;-61
2023/01/28 07:10:21;;;;;;;0.60;0.60;;;;;;;;;;4613522;27;20090;-60
2023/01/28 07:12:31;;;;;;;0.70;0.70;;;;;;;;;;4613318;27;20043;-60
2023/01/28 07:14:41;;;;;;;0.93;0.80;;;;;;;;;;4613362;27;20035;-60
2023/01/28 07:16:52;;;;;;;0.88;0.70;;;;;;;;;;4613068;27;20610;-60
2023/01/28 07:19:02;;;;;;;0.73;0.73;;;;;;;;;;4612631;27;20035;-61
2023/01/28 07:21:13;;;;;;;0.65;0.65;;;;;;;;;;4612932;27;20039;-60
2023/01/28 07:23:23;;;;;;;0.70;0.70;;;;;;;;;;4613212;27;20547;-61
2023/01/28 07:25:33;;;;;;;0.70;0.70;;;;;;;;;;4613414;27;20473;-61
2023/01/28 07:27:48;;;;;;;0.85;0.70;;;;;;;;;;4611895;27;21036;-60
2023/01/28 07:29:58;;;;;;;0.90;0.80;;;;;;;;;;4601134;27;20685;-61
2023/01/28 07:32:08;;;;;;;0.65;0.65;;;;;;;;;;4612423;27;20316;-60
2023/01/28 07:34:18;;;;;;;0.70;0.70;;;;;;;;;;4611435;27;20036;-60
2023/01/28 07:36:29;;;;;;;0.75;0.65;;;;;;;;;;4611065;27;20039;-61
2023/01/28 07:38:39;;;;;;;0.80;0.80;;;;;;;;;;4610989;27;20046;-61
2023/01/28 07:40:50;;;;;;;0.80;0.80;;;;;;;;;;4610909;27;20091;-60
2023/01/28 07:43:00;;;;;;;0.80;0.80;;;;;;;;;;4612373;27;20064;-60
2023/01/28 07:45:19;;;;;;;0.70;0.60;;;;;;;;;;4609985;27;20035;-61
2023/01/28 07:47:29;;;;;;;0.93;0.60;;;;;;;;;;4592882;27;20032;-61
2023/01/28 07:49:39;;;;;;;0.60;0.60;;;;;;;;;;4614227;27;20030;-60
2023/01/28 07:51:50;;;;;;;0.60;0.60;;;;;;;;;;4609974;27;20118;-61
2023/01/28 07:54:00;;;;;;;0.80;0.80;;;;;;;;;;4612785;27;20039;-60
2023/01/28 07:56:10;;;;;;;0.70;0.70;;;;;;;;;;4613126;27;20533;-61
2023/01/28 07:58:21;;;;;;;1.15;0.80;;;;;;;;;;4610879;27;20043;-60
2023/01/28 08:00:32;;;;;;;0.70;0.70;;;;;;;;;;4613407;27;20046;-61
2023/01/28 08:02:46;;;;;;;0.63;0.63;;;;;;;;;;4610837;27;20039;-60
2023/01/28 08:04:58;;;;;;;0.70;0.70;;;;;;;;;;4611578;27;20592;-60
2023/01/28 08:07:09;;;;;;;0.77;0.77;;;;;;;;;;4613771;27;20133;-61
2023/01/28 08:09:19;;;;;;;0.70;0.70;;;;;;;;;;4612201;27;20035;-63
2023/01/28 08:11:29;;;;;;;0.73;0.70;;;;;;;;;;4612267;27;20031;-60
2023/01/28 08:13:39;;;;;;;0.77;0.77;;;;;;;;;;4628914;27;20034;-60
2023/01/28 08:15:53;;;;;;;1.27;0.93;;;;;;;;;;4611288;27;20126;-60
2023/01/28 08:18:04;;;;;;;0.80;0.80;;;;;;;;;;4611523;27;20802;-60
2023/01/28 08:20:15;;;;;;;0.80;0.80;;;;;;;;;;4614840;27;20027;-60
2023/01/28 08:22:25;;;;;;;0.80;0.80;;;;;;;;;;4615821;27;20119;-60
2023/01/28 08:24:36;;;;;;;0.80;0.80;;;;;;;;;;4615145;27;20031;-60
2023/01/28 08:26:47;;;;;;;0.95;0.90;;;;;;;;;;4614165;27;20039;-61
2023/01/28 08:28:57;;;;;;;0.85;0.85;;;;;;;;;;4615803;27;20078;-61
2023/01/28 08:31:07;;;;;;;1.00;1.00;;;;;;;;;;4615017;27;20134;-60
2023/01/28 08:33:18;;;;;;;1.08;0.98;;;;;;;;;;4614988;27;20031;-60
2023/01/28 08:35:29;;;;;;;0.85;0.80;;;;;;;;;;4614380;27;20127;-60
2023/01/28 08:37:39;;;;;;;0.80;0.80;;;;;;;;;;4614515;27;20527;-60
2023/01/28 08:39:49;;;;;;;0.60;0.60;;;;;;;;;;4612786;27;20084;-60
2023/01/28 08:42:00;;;;;;;0.52;0.52;;;;;;;;;;4614994;27;20062;-62
2023/01/28 08:44:10;;;;;;;0.50;0.50;;;;;;;;;;4614731;27;20812;-60
2023/01/28 08:46:21;;;;;;;0.57;0.57;;;;;;;;;;4594981;27;20527;-62
2023/01/28 08:48:31;;;;;;;0.90;0.90;;;;;;;;;;4614338;27;20035;-60
2023/01/28 08:50:41;;;;;;;0.70;0.70;;;;;;;;;;4615226;27;20108;-61
2023/01/28 08:52:55;;;;;;;0.70;0.70;;;;;;;;;;4616033;27;20102;-61
2023/01/28 08:55:06;;;;;;;0.77;0.65;;;;;;;;;;4615268;27;21148;-60
2023/01/28 08:57:16;;;;;;;1.00;0.90;;;;;;;;;;4613932;27;20047;-60
2023/01/28 08:59:27;;;;;;;0.98;0.80;;;;;;;;;;4614606;27;20035;-60
2023/01/28 09:01:37;;;;;;;0.60;0.60;;;;;;;;;;4613528;27;20046;-62
2023/01/28 09:03:47;;;;;;;0.70;0.70;;;;;;;;;;4614869;27;20067;-60
2023/01/28 09:06:01;;;;;;;0.73;0.70;;;;;;;;;;4615450;27;20035;-60
2023/01/28 09:08:12;;;;;;;0.60;0.60;;;;;;;;;;4615036;27;20099;-60
2023/01/28 09:10:22;;;;;;;0.60;0.60;;;;;;;;;;4615297;27;20050;-60
2023/01/28 09:12:33;;;;;;;0.73;0.65;;;;;;;;;;4614295;27;20030;-61
2023/01/28 09:14:43;;;;;;;0.52;0.52;;;;;;;;;;4614284;27;20045;-61
2023/01/28 09:16:53;;;;;;;0.70;0.70;;;;;;;;;;4613448;27;20043;-61
2023/01/28 09:19:04;;;;;;;0.60;0.60;;;;;;;;;;4613978;27;20115;-61
2023/01/28 09:21:14;;;;;;;1.15;0.60;;;;;;;;;;4612424;27;20565;-61
2023/01/28 09:23:24;;;;;;;0.70;0.70;;;;;;;;;;4614352;27;20031;-61
2023/01/28 09:25:35;;;;;;;0.80;0.80;;;;;;;;;;4614064;27;20042;-60
2023/01/28 09:27:45;;;;;;;0.80;0.80;;;;;;;;;;4614288;27;20046;-60
2023/01/28 09:29:55;;;;;;;0.70;0.70;;;;;;;;;;4614307;27;20374;-60
2023/01/28 09:32:06;;;;;;;0.80;0.80;;;;;;;;;;4614931;27;20362;-61
2023/01/28 09:34:16;;;;;;;0.70;0.70;;;;;;;;;;4614693;27;20211;-60
2023/01/28 09:36:26;;;;;;;0.70;0.70;;;;;;;;;;4614881;27;20043;-60
2023/01/28 09:38:37;;;;;;;0.73;0.73;;;;;;;;;;4612986;27;20031;-60
2023/01/28 09:40:47;;;;;;;0.82;0.80;;;;;;;;;;4614103;27;20498;-60
2023/01/28 09:43:03;;;;;;;0.85;0.80;;;;;;;;;;4613479;27;20030;-60
2023/01/28 09:45:15;;;;;;;0.80;0.80;;;;;;;;;;4613244;27;20053;-60
2023/01/28 09:47:28;;;;;;;0.98;0.95;;;;;;;;;;4629738;27;20118;-60
2023/01/28 09:49:44;;;;;;;0.85;0.80;;;;;;;;;;4630408;27;20380;-61
2023/01/28 09:51:55;;;;;;;0.95;0.90;;;;;;;;;;4613174;27;20090;-61
2023/01/28 09:54:13;;;;;;;0.80;0.80;;;;;;;;;;4613886;27;20042;-61
2023/01/28 09:56:30;;;;;;;0.73;0.70;;;;;;;;;;4613029;27;20074;-61
2023/01/28 09:58:42;;;;;;;0.77;0.77;;;;;;;;;;4613587;27;20046;-61
2023/01/28 10:00:59;;;;;;;1.00;0.90;;;;;;;;;;4628084;27;20026;-60
2023/01/28 10:03:21;;;;;;;0.80;0.80;;;;;;;;;;4612881;27;21044;-61
2023/01/28 10:05:39;;;;;;;1.10;1.00;;;;;;;;;;4613860;27;20549;-60
2023/01/28 10:08:00;;;;;;;0.85;0.85;;;;;;;;;;4614223;27;20046;-60
2023/01/28 10:10:18;;;;;;;0.93;0.93;;;;;;;;;;4612457;27;20138;-61
2023/01/28 10:12:38;;;;;;;1.00;1.00;;;;;;;;;;4612701;27;20210;-61
2023/01/28 10:14:51;;;;;;;1.00;1.00;;;;;;;;;;4613356;27;20586;-61
2023/01/28 10:17:06;;;;;;;1.17;1.10;;;;;;;;;;4612589;27;20036;-62
2023/01/28 10:19:31;;;;;;;1.30;1.20;;;;;;;;;;4613708;27;20134;-60
2023/01/28 10:21:48;;;;;;;1.30;1.20;;;;;;;;;;4612828;27;20042;-61
2023/01/28 10:24:02;;;;;;;1.10;1.10;;;;;;;;;;4613038;27;20150;-60
2023/01/28 10:26:20;;;;;;;1.15;1.05;;;;;;;;;;4612559;27;20027;-60
2023/01/28 10:28:33;;;;;;;0.80;0.80;;;;;;;;;;4600135;27;20155;-60
2023/01/28 10:30:45;;;;;;;1.10;1.00;;;;;;;;;;4614233;27;20079;-60
2023/01/28 10:33:02;;;;;;;1.05;1.05;;;;;;;;;;4613991;27;20562;-60
2023/01/28 10:35:12;;;;;;;;;;;;;;;;;;4611458;27;20043;-59
2023/01/28 10:37:22;;;;;;;0.88;0.88;;;;;;;;;;4613720;27;20403;-60
2023/01/28 10:39:33;;;;;;;1.00;1.00;;;;;;;;;;4628884;27;20035;-62
2023/01/28 10:41:43;;;;;;;1.15;1.05;;;;;;;;;;4612483;27;20796;-65
2023/01/28 10:43:55;;;;;;;1.08;1.08;;;;;;;;;;4613846;27;20362;-74
2023/01/28 10:46:09;;;;;;;1.20;1.13;;;;;;;;;;4595296;27;20043;-73
2023/01/28 10:48:24;;;;;;;1.40;1.30;;;;;;;;;;4614724;27;20606;-71
2023/01/28 10:50:37;;;;;;;1.40;1.30;;;;;;;;;;4615426;27;21009;-75
2023/01/28 10:52:53;;;;;;;1.30;1.20;;;;;;;;;;4613050;27;20035;-63
2023/01/28 10:55:05;;;;;;;1.63;1.52;;;;;;;;;;4613252;27;20034;-65
2023/01/28 10:57:17;;;;;;;1.60;1.50;;;;;;;;;;4613806;27;20043;-63
2023/01/28 10:59:28;;;;;;;1.60;1.50;;;;;;;;;;4613126;27;20076;-68
2023/01/28 11:01:39;;;;;;;2.50;2.00;;;;;;;;;;4613848;27;20841;-67
2023/01/28 11:03:53;;;;;;;1.65;1.55;;;;;;;;;;4613166;27;20046;-63
2023/01/28 11:06:03;;;;;;;1.63;1.50;;;;;;;;;;4614014;27;20102;-64
2023/01/28 11:08:14;;;;;;;2.25;2.05;;;;;;;;;;4613071;27;20057;-64
2023/01/28 11:10:28;;;;;;;1.77;1.67;;;;;;;;;;4613350;27;20027;-65
2023/01/28 11:12:39;;;;;;;1.70;1.60;;;;;;;;;;4613114;27;20086;-65
2023/01/28 11:14:57;;;;;;;1.70;1.50;;;;;;;;;;4613424;27;20043;-65
2023/01/28 11:17:15;;;;;;;1.80;1.70;;;;;;;;;;4613759;27;20166;-65
2023/01/28 11:19:30;;;;;;;1.80;1.70;;;;;;;;;;4613511;27;20656;-65
2023/01/28 11:21:47;;;;;;;1.80;1.70;;;;;;;;;;4613205;27;20035;-66
2023/01/28 11:23:57;;;;;;;1.60;1.50;;;;;;;;;;4612594;27;20062;-65
2023/01/28 11:26:18;;;;;;;1.67;1.58;;;;;;;;;;4612777;27;20621;-65
2023/01/28 11:28:29;;;;;;;1.65;1.40;;;;;;;;;;4612022;27;20031;-65
2023/01/28 11:30:40;;;;;;;1.83;1.65;;;;;;;;;;4612445;27;20511;-66
2023/01/28 11:33:01;;;;;;;1.60;1.50;;;;;;;;;;4629942;27;20068;-65
2023/01/28 11:35:23;;;;;;;1.73;1.63;;;;;;;;;;4612276;27;20035;-65
2023/01/28 11:37:34;;;;;;;2.22;2.03;;;;;;;;;;4613477;27;20137;-65
2023/01/28 11:39:44;;;;;;;1.80;1.70;;;;;;;;;;4613933;27;20603;-65
2023/01/28 11:42:02;;;;;;;2.20;2.00;;;;;;;;;;4613461;27;20070;-65
2023/01/28 11:44:26;;;;;;;1.70;1.60;;;;;;;;;;4611402;27;21238;-65
2023/01/28 11:46:42;;;;;;;1.70;1.60;;;;;;;;;;4612551;27;20051;-65
2023/01/28 11:49:00;;;;;;;1.95;1.85;;;;;;;;;;4613126;27;20035;-65
2023/01/28 11:51:10;;;;;;;1.75;1.65;;;;;;;;;;4611593;27;20080;-65
2023/01/28 11:53:31;;;;;;;1.70;1.60;;;;;;;;;;4613750;27;20039;-65
2023/01/28 11:56:00;;;;;;;1.80;1.70;;;;;;;;;;4615337;27;20552;-65
2023/01/28 11:58:11;;;;;;;1.98;1.85;;;;;;;;;;4615337;27;20746;-65
2023/01/28 12:00:34;;;;;;;3.50;1.80;;;;;;;;;;4616458;27;20217;-65
2023/01/28 12:02:47;;;;;;;1.70;1.60;;;;;;;;;;4615809;27;20708;-68
2023/01/28 12:05:16;;;;;;;1.90;1.80;;;;;;;;;;4614904;27;20044;-66
2023/01/28 12:07:32;;;;;;;2.20;1.80;;;;;;;;;;4615500;27;20035;-67
2023/01/28 12:09:54;;;;;;;2.00;1.87;;;;;;;;;;4616207;27;20031;-68
2023/01/28 12:12:10;;;;;;;2.22;1.88;;;;;;;;;;4615882;27;20269;-67
2023/01/28 12:14:20;;;;;;;1.77;1.67;;;;;;;;;;4615730;27;20269;-66
2023/01/28 12:16:33;;;;;;;1.73;1.63;;;;;;;;;;4615567;27;20035;-66
2023/01/28 12:18:56;;;;;;;2.05;1.85;;;;;;;;;;4616663;27;20688;-66
2023/01/28 12:21:10;;;;;;;1.80;1.70;;;;;;;;;;4597284;27;20047;-66
2023/01/28 12:23:46;;;;;;;1.90;1.80;;;;;;;;;;4614707;27;20039;-65
2023/01/28 12:25:57;;;;;;;1.90;1.77;;;;;;;;;;4611560;27;20134;-66
2023/01/28 12:28:13;;;;;;;1.70;1.60;;;;;;;;;;4617223;27;20035;-66
2023/01/28 12:30:38;;;;;;;1.70;1.60;;;;;;;;;;4616285;27;20184;-67
2023/01/28 12:33:07;;;;;;;1.65;1.55;;;;;;;;;;4615610;27;20058;-68
2023/01/28 12:35:49;;;;;;;1.58;1.48;;;;;;;;;;4615049;27;20039;-68
2023/01/28 12:38:08;;;;;;;1.60;1.50;;;;;;;;;;4563014;27;20768;-66
2023/01/28 12:40:31;;;;;;;1.80;1.70;;;;;;;;;;4615365;27;20040;-68
2023/01/28 12:42:44;;;;;;;1.80;1.70;;;;;;;;;;4615838;27;20902;-68
2023/01/28 12:45:10;;;;;;;1.60;1.50;;;;;;;;;;4615077;27;20537;-68
2023/01/28 12:47:23;;;;;;;1.60;1.50;;;;;;;;;;4600086;27;20538;-68
2023/01/28 12:49:37;;;;;;;1.70;1.60;;;;;;;;;;4616195;27;20070;-68
2023/01/28 12:52:02;;;;;;;1.60;1.50;;;;;;;;;;4616473;27;20046;-68
2023/01/28 12:54:13;;;;;;;1.60;1.50;;;;;;;;;;4615512;27;20116;-68
2023/01/28 12:56:28;;;;;;;1.63;1.52;;;;;;;;;;4614877;27;20049;-68
2023/01/28 12:58:42;;;;;;;1.50;1.40;;;;;;;;;;4615399;27;20050;-68
2023/01/28 13:00:55;;;;;;;1.70;1.60;;;;;;;;;;4615640;27;20031;-68
2023/01/28 13:03:25;;;;;;;1.65;1.55;;;;;;;;;;4615696;27;20579;-68
2023/01/28 13:05:39;;;;;;;1.70;1.60;;;;;;;;;;4613348;27;20076;-68
2023/01/28 13:07:52;;;;;;;1.52;1.42;;;;;;;;;;4602497;27;20154;-68
2023/01/28 13:10:13;;;;;;;1.73;1.63;;;;;;;;;;4615679;27;20085;-68
2023/01/28 13:12:24;;;;;;;1.80;1.70;;;;;;;;;;4616178;27;20034;-68
2023/01/28 13:14:34;;;;;;;1.50;1.40;;;;;;;;;;4613964;27;20024;-69
2023/01/28 13:16:44;;;;;;;1.60;1.50;;;;;;;;;;4615888;27;20073;-69
2023/01/28 13:19:04;;;;;;;1.70;1.60;;;;;;;;;;4615612;27;20035;-68
2023/01/28 13:21:20;;;;;;;1.63;1.52;;;;;;;;;;4615797;27;20656;-68
2023/01/28 13:23:30;;;;;;;1.70;1.60;;;;;;;;;;4615607;27;20498;-68
2023/01/28 13:25:46;;;;;;;1.70;1.60;;;;;;;;;;4618372;27;20031;-68
2023/01/28 13:28:02;;;;;;;1.60;1.50;;;;;;;;;;4615134;27;20064;-69
2023/01/28 13:30:29;;;;;;;1.60;1.50;;;;;;;;;;4616191;27;20031;-68
2023/01/28 13:32:39;;;;;;;1.67;1.58;;;;;;;;;;4616593;27;20023;-68
2023/01/28 13:34:56;;;;;;;1.70;1.60;;;;;;;;;;4616726;27;20039;-68
2023/01/28 13:37:25;;;;;;;1.70;1.60;;;;;;;;;;4612729;27;20050;-68
2023/01/28 13:39:36;;;;;;;1.50;1.40;;;;;;;;;;4614212;27;20051;-68
2023/01/28 13:42:07;;;;;;;1.60;1.50;;;;;;;;;;4614763;27;20608;-68
2023/01/28 13:44:26;;;;;;;2.10;1.90;;;;;;;;;;4614668;27;20058;-68
2023/01/28 13:46:38;;;;;;;1.90;1.80;;;;;;;;;;4602378;27;20099;-68
2023/01/28 13:48:50;;;;;;;1.60;1.50;;;;;;;;;;4614562;27;20034;-68
2023/01/28 13:51:01;;;;;;;2.25;2.05;;;;;;;;;;4613986;27;20039;-68
2023/01/28 13:53:16;;;;;;;1.90;1.80;;;;;;;;;;4616194;27;21125;-68